createdAt,value
2018-03-14T00:00:38.250Z,0
2018-03-14T00:01:48.225Z,0
2018-03-14T00:02:58.453Z,0
2018-03-14T00:04:08.771Z,0
2018-03-14T00:05:18.730Z,0
2018-03-14T00:06:28.268Z,0
2018-03-14T00:07:38.483Z,0
2018-03-14T00:08:48.699Z,0
2018-03-14T00:09:58.880Z,0
2018-03-14T00:11:09.181Z,0
2018-03-14T00:12:19.366Z,0
2018-03-14T00:13:29.570Z,0
2018-03-14T00:14:39.816Z,0
2018-03-14T00:15:49.707Z,0
2018-03-14T00:16:59.358Z,0
2018-03-14T00:18:09.604Z,0
2018-03-14T00:19:19.348Z,0
2018-03-14T00:20:29.398Z,0
2018-03-14T00:21:39.601Z,0
2018-03-14T00:22:49.503Z,0
2018-03-14T00:23:59.683Z,0
2018-03-14T00:25:09.604Z,0
2018-03-14T00:26:19.542Z,0
2018-03-14T00:27:29.474Z,0
2018-03-14T00:28:39.641Z,0
2018-03-14T00:29:49.522Z,0
2018-03-14T00:30:59.843Z,0
2018-03-14T00:32:10.137Z,0
2018-03-14T00:33:20.236Z,0
2018-03-14T00:34:30.470Z,0
2018-03-14T00:35:39.800Z,0
2018-03-14T00:36:49.760Z,0
2018-03-14T00:37:59.081Z,0
2018-03-14T00:39:09.052Z,0
2018-03-14T00:40:19.238Z,0
2018-03-14T00:41:29.458Z,0
2018-03-14T00:42:39.759Z,0
2018-03-14T00:43:50.709Z,0
2018-03-14T00:45:03.814Z,0
2018-03-14T00:46:14.935Z,0
2018-03-14T00:47:26.052Z,0
2018-03-14T00:48:36.441Z,0
2018-03-14T00:49:46.626Z,0
2018-03-14T00:50:56.825Z,0
2018-03-14T00:52:06.982Z,0
2018-03-14T00:53:17.169Z,0
2018-03-14T00:54:27.374Z,0
2018-03-14T00:55:37.580Z,0
2018-03-14T00:56:47.499Z,0
2018-03-14T00:57:57.307Z,0
2018-03-14T00:59:06.915Z,0
2018-03-14T01:00:16.806Z,0
2018-03-14T01:01:27.022Z,0
2018-03-14T01:02:36.588Z,0
2018-03-14T01:03:46.123Z,0
2018-03-14T01:04:57.430Z,0
2018-03-14T01:06:07.338Z,0
2018-03-14T01:07:16.987Z,0
2018-03-14T01:08:27.223Z,0
2018-03-14T01:09:37.425Z,0
2018-03-14T01:10:47.769Z,0
2018-03-14T01:11:57.321Z,0
2018-03-14T01:13:06.948Z,0
2018-03-14T01:14:16.875Z,0
2018-03-14T01:15:26.684Z,0
2018-03-14T01:16:36.675Z,0
2018-03-14T01:17:47.136Z,0
2018-03-14T01:18:56.699Z,0
2018-03-14T01:20:06.902Z,0
2018-03-14T01:21:16.799Z,0
2018-03-14T01:22:26.970Z,0
2018-03-14T01:23:37.143Z,0
2018-03-14T01:24:47.045Z,0
2018-03-14T01:25:56.948Z,0
2018-03-14T01:27:06.778Z,0
2018-03-14T01:28:16.972Z,0
2018-03-14T01:29:27.196Z,0
2018-03-14T01:30:37.380Z,0
2018-03-14T01:31:46.952Z,0
2018-03-14T01:32:56.882Z,0
2018-03-14T01:34:06.848Z,0
2018-03-14T01:35:16.466Z,0
2018-03-14T01:36:26.693Z,0
2018-03-14T01:37:36.590Z,0
2018-03-14T01:38:46.799Z,0
2018-03-14T01:39:56.996Z,0
2018-03-14T01:41:06.644Z,0
2018-03-14T01:42:16.555Z,0
2018-03-14T01:43:26.745Z,0
2018-03-14T01:44:37.126Z,0
2018-03-14T01:45:47.079Z,0
2018-03-14T01:46:59.191Z,0
2018-03-14T01:48:10.170Z,0
2018-03-14T01:49:22.714Z,0
2018-03-14T01:50:33.653Z,0
2018-03-14T01:51:44.769Z,0
2018-03-14T01:52:54.666Z,0
2018-03-14T01:54:04.760Z,0
2018-03-14T01:55:15.075Z,0
2018-03-14T01:56:24.974Z,0
2018-03-14T01:57:35.239Z,0
2018-03-14T01:58:44.846Z,0
2018-03-14T01:59:55.047Z,0
2018-03-14T02:01:04.960Z,0
2018-03-14T02:02:15.100Z,0
2018-03-14T02:03:25.027Z,0
2018-03-14T02:04:34.898Z,0
2018-03-14T02:05:45.093Z,0
2018-03-14T02:06:55.011Z,0
2018-03-14T02:08:04.924Z,0
2018-03-14T02:09:14.792Z,0
2018-03-14T02:10:24.420Z,0
2018-03-14T02:11:34.380Z,0
2018-03-14T02:12:44.523Z,0
2018-03-14T02:13:54.442Z,0
2018-03-14T02:15:03.995Z,0
2018-03-14T02:16:14.168Z,0
2018-03-14T02:17:24.391Z,0
2018-03-14T02:18:34.632Z,0
2018-03-14T02:19:44.863Z,0
2018-03-14T02:20:54.759Z,0
2018-03-14T02:22:04.658Z,0
2018-03-14T02:23:14.308Z,0
2018-03-14T02:24:24.582Z,0
2018-03-14T02:25:34.647Z,0
2018-03-14T02:26:44.875Z,0
2018-03-14T02:27:54.778Z,0
2018-03-14T02:29:04.986Z,0
2018-03-14T02:30:15.169Z,0
2018-03-14T02:31:25.600Z,0
2018-03-14T02:32:35.504Z,0
2018-03-14T02:33:45.689Z,0
2018-03-14T02:34:55.878Z,0
2018-03-14T02:36:06.027Z,0
2018-03-14T02:37:16.318Z,0
2018-03-14T02:38:26.473Z,0
2018-03-14T02:39:36.032Z,0
2018-03-14T02:40:46.264Z,0
2018-03-14T02:41:56.192Z,0
2018-03-14T02:43:05.767Z,0
2018-03-14T02:44:16.943Z,0
2018-03-14T02:45:27.076Z,0
2018-03-14T02:46:37.201Z,0
2018-03-14T02:47:47.297Z,0
2018-03-14T02:48:57.397Z,0
2018-03-14T02:50:06.884Z,0
2018-03-14T02:51:16.319Z,0
2018-03-14T02:52:26.515Z,0
2018-03-14T02:53:36.702Z,0
2018-03-14T02:54:46.813Z,0
2018-03-14T02:55:56.430Z,0
2018-03-14T02:57:06.597Z,0
2018-03-14T02:58:16.680Z,0
2018-03-14T02:59:26.816Z,0
2018-03-14T03:00:36.576Z,0
2018-03-14T03:01:46.764Z,0
2018-03-14T03:02:56.631Z,0
2018-03-14T03:04:06.757Z,0
2018-03-14T03:05:16.548Z,0
2018-03-14T03:06:26.667Z,0
2018-03-14T03:07:36.270Z,0
2018-03-14T03:08:46.384Z,0
2018-03-14T03:09:56.533Z,0
2018-03-14T03:11:06.660Z,0
2018-03-14T03:12:17.129Z,0
2018-03-14T03:13:27.249Z,0
2018-03-14T03:14:36.857Z,0
2018-03-14T03:15:46.518Z,0
2018-03-14T03:16:56.666Z,0
2018-03-14T03:18:06.793Z,0
2018-03-14T03:19:16.681Z,0
2018-03-14T03:20:26.906Z,0
2018-03-14T03:21:37.031Z,0
2018-03-14T03:22:47.034Z,0
2018-03-14T03:23:56.575Z,0
2018-03-14T03:25:06.721Z,0
2018-03-14T03:26:16.685Z,0
2018-03-14T03:27:26.898Z,0
2018-03-14T03:28:37.148Z,0
2018-03-14T03:29:46.699Z,0
2018-03-14T03:30:56.901Z,0
2018-03-14T03:32:06.683Z,0
2018-03-14T03:33:16.839Z,0
2018-03-14T03:34:26.975Z,0
2018-03-14T03:35:37.123Z,0
2018-03-14T03:36:47.250Z,0
2018-03-14T03:37:57.501Z,0
2018-03-14T03:39:07.243Z,0
2018-03-14T03:40:17.090Z,0
2018-03-14T03:41:26.965Z,0
2018-03-14T03:42:37.075Z,0
2018-03-14T03:43:46.578Z,0
2018-03-14T03:44:56.236Z,0
2018-03-14T03:46:06.372Z,0
2018-03-14T03:47:16.479Z,0
2018-03-14T03:48:26.129Z,0
2018-03-14T03:49:36.029Z,0
2018-03-14T03:50:45.907Z,0
2018-03-14T03:51:57.026Z,0
2018-03-14T03:53:07.132Z,0
2018-03-14T03:54:16.976Z,0
2018-03-14T03:55:26.965Z,0
2018-03-14T03:56:36.808Z,0
2018-03-14T03:57:46.920Z,0
2018-03-14T03:58:56.782Z,0
2018-03-14T04:00:07.894Z,0
2018-03-14T04:01:17.511Z,0
2018-03-14T04:02:27.493Z,0
2018-03-14T04:03:37.625Z,0
2018-03-14T04:04:47.758Z,0
2018-03-14T04:05:57.612Z,0
2018-03-14T04:07:07.475Z,0
2018-03-14T04:08:17.396Z,0
2018-03-14T04:09:27.255Z,0
2018-03-14T04:10:37.360Z,0
2018-03-14T04:11:47.155Z,0
2018-03-14T04:12:57.266Z,0
2018-03-14T04:14:07.487Z,0
2018-03-14T04:15:17.341Z,0
2018-03-14T04:16:27.232Z,0
2018-03-14T04:17:37.355Z,0
2018-03-14T04:18:47.479Z,0
2018-03-14T04:19:57.624Z,0
2018-03-14T04:21:07.478Z,0
2018-03-14T04:22:17.582Z,0
2018-03-14T04:23:27.769Z,0
2018-03-14T04:24:37.632Z,0
2018-03-14T04:25:47.493Z,0
2018-03-14T04:26:57.339Z,0
2018-03-14T04:28:07.455Z,0
2018-03-14T04:29:17.302Z,0
2018-03-14T04:30:27.486Z,0
2018-03-14T04:31:37.406Z,0
2018-03-14T04:32:47.606Z,0
2018-03-14T04:33:57.811Z,0
2018-03-14T04:35:08.077Z,0
2018-03-14T04:36:18.298Z,0
2018-03-14T04:37:28.458Z,0
2018-03-14T04:38:38.402Z,0
2018-03-14T04:39:48.286Z,0
2018-03-14T04:40:58.143Z,0
2018-03-14T04:42:08.527Z,0
2018-03-14T04:43:18.663Z,0
2018-03-14T04:44:28.904Z,0
2018-03-14T04:45:39.127Z,0
2018-03-14T04:46:49.407Z,0
2018-03-14T04:47:59.585Z,0
2018-03-14T04:49:09.737Z,0
2018-03-14T04:50:19.712Z,0
2018-03-14T04:51:29.832Z,0
2018-03-14T04:52:39.674Z,0
2018-03-14T04:53:49.826Z,0
2018-03-14T04:54:59.973Z,0
2018-03-14T04:56:10.126Z,0
2018-03-14T04:57:19.762Z,0
2018-03-14T04:58:29.685Z,0
2018-03-14T04:59:39.850Z,0
2018-03-14T05:00:49.352Z,0
2018-03-14T05:01:59.471Z,0
2018-03-14T05:03:10.561Z,4
2018-03-14T05:04:20.428Z,0
2018-03-14T05:05:30.533Z,0
2018-03-14T05:06:40.655Z,0
2018-03-14T05:07:50.816Z,4
2018-03-14T05:09:01.010Z,4
2018-03-14T05:10:10.622Z,0
2018-03-14T05:11:20.766Z,4
2018-03-14T05:12:30.888Z,4
2018-03-14T05:13:40.992Z,4
2018-03-14T05:14:51.147Z,8
2018-03-14T05:16:00.781Z,8
2018-03-14T05:17:10.667Z,12
2018-03-14T05:18:20.527Z,12
2018-03-14T05:19:30.388Z,12
2018-03-14T05:20:40.509Z,16
2018-03-14T05:21:50.695Z,20
2018-03-14T05:23:00.362Z,24
2018-03-14T05:24:10.226Z,28
2018-03-14T05:25:20.099Z,32
2018-03-14T05:26:29.702Z,36
2018-03-14T05:27:39.880Z,40
2018-03-14T05:28:49.725Z,44
2018-03-14T05:29:59.485Z,52
2018-03-14T05:31:09.353Z,52
2018-03-14T05:32:18.977Z,60
2018-03-14T05:33:28.949Z,52
2018-03-14T05:34:39.250Z,48
2018-03-14T05:35:49.382Z,52
2018-03-14T05:36:59.507Z,52
2018-03-14T05:38:09.026Z,48
2018-03-14T05:39:19.155Z,44
2018-03-14T05:40:28.788Z,56
2018-03-14T05:41:38.929Z,60
2018-03-14T05:42:49.083Z,68
2018-03-14T05:43:58.689Z,100
2018-03-14T05:45:08.812Z,108
2018-03-14T05:46:18.933Z,128
2018-03-14T05:47:29.063Z,156
2018-03-14T05:48:39.203Z,160
2018-03-14T05:49:48.840Z,148
2018-03-14T05:50:59.486Z,164
2018-03-14T05:52:09.364Z,180
2018-03-14T05:53:19.502Z,204
2018-03-14T05:54:29.630Z,236
2018-03-14T05:55:39.496Z,228
2018-03-14T05:56:49.096Z,204
2018-03-14T05:57:58.950Z,236
2018-03-14T05:59:09.088Z,280
2018-03-14T06:00:19.348Z,308
2018-03-14T06:01:29.313Z,316
2018-03-14T06:02:39.167Z,312
2018-03-14T06:03:49.117Z,324
2018-03-14T06:04:59.298Z,352
2018-03-14T06:06:09.149Z,396
2018-03-14T06:07:19.083Z,436
2018-03-14T06:08:28.727Z,468
2018-03-14T06:09:38.576Z,508
2018-03-14T06:10:48.454Z,544
2018-03-14T06:11:58.364Z,584
2018-03-14T06:13:08.836Z,632
2018-03-14T06:14:18.846Z,676
2018-03-14T06:15:29.000Z,696
2018-03-14T06:16:39.153Z,704
2018-03-14T06:17:49.311Z,688
2018-03-14T06:18:59.431Z,660
2018-03-14T06:20:09.633Z,656
2018-03-14T06:21:19.763Z,684
2018-03-14T06:22:30.132Z,740
2018-03-14T06:23:40.305Z,788
2018-03-14T06:24:50.099Z,828
2018-03-14T06:26:00.239Z,888
2018-03-14T06:27:10.436Z,920
2018-03-14T06:28:20.571Z,928
2018-03-14T06:29:30.319Z,900
2018-03-14T06:30:40.565Z,832
2018-03-14T06:31:50.773Z,784
2018-03-14T06:33:00.629Z,792
2018-03-14T06:34:10.485Z,860
2018-03-14T06:35:20.264Z,940
2018-03-14T06:36:30.376Z,996
2018-03-14T06:37:40.521Z,1044
2018-03-14T06:38:50.651Z,1056
2018-03-14T06:40:00.797Z,1080
2018-03-14T06:41:10.949Z,1156
2018-03-14T06:42:19.690Z,1252
2018-03-14T06:43:29.790Z,1336
2018-03-14T06:44:39.542Z,1416
2018-03-14T06:45:48.887Z,1512
2018-03-14T06:46:58.859Z,1624
2018-03-14T06:48:09.042Z,1764
2018-03-14T06:49:19.057Z,1900
2018-03-14T06:50:28.929Z,1952
2018-03-14T06:51:39.066Z,1948
2018-03-14T06:52:49.275Z,1976
2018-03-14T06:53:59.183Z,2028
2018-03-14T06:55:08.465Z,1968
2018-03-14T06:56:18.354Z,1868
2018-03-14T06:57:28.534Z,1852
2018-03-14T06:58:38.682Z,1972
2018-03-14T06:59:48.431Z,2064
2018-03-14T07:00:58.549Z,2104
2018-03-14T07:02:08.794Z,2144
2018-03-14T07:03:18.554Z,2048
2018-03-14T07:04:28.792Z,2076
2018-03-14T07:05:38.922Z,2020
2018-03-14T07:06:48.810Z,1756
2018-03-14T07:07:58.930Z,1576
2018-03-14T07:09:09.739Z,1464
2018-03-14T07:10:19.916Z,1444
2018-03-14T07:11:29.764Z,1576
2018-03-14T07:12:39.898Z,1500
2018-03-14T07:13:49.759Z,1712
2018-03-14T07:14:59.894Z,1776
2018-03-14T07:16:10.111Z,1708
2018-03-14T07:17:20.259Z,1820
2018-03-14T07:18:30.458Z,1792
2018-03-14T07:19:40.600Z,1856
2018-03-14T07:20:50.837Z,2072
2018-03-14T07:22:00.959Z,2460
2018-03-14T07:23:11.165Z,2696
2018-03-14T07:24:21.301Z,2988
2018-03-14T07:25:31.402Z,3196
2018-03-14T07:26:41.379Z,3104
2018-03-14T07:27:51.657Z,2968
2018-03-14T07:29:01.558Z,2888
2018-03-14T07:30:12.681Z,2968
2018-03-14T07:31:22.813Z,3200
2018-03-14T07:32:33.045Z,3184
2018-03-14T07:33:43.205Z,3024
2018-03-14T07:34:53.079Z,2996
2018-03-14T07:36:03.378Z,3080
2018-03-14T07:37:13.528Z,3124
2018-03-14T07:38:23.413Z,3320
2018-03-14T07:39:33.302Z,3296
2018-03-14T07:40:43.574Z,3088
2018-03-14T07:41:53.683Z,2656
2018-03-14T07:43:03.626Z,2688
2018-03-14T07:44:13.646Z,2788
2018-03-14T07:45:23.523Z,2724
2018-03-14T07:46:33.624Z,2404
2018-03-14T07:47:43.535Z,2680
2018-03-14T07:48:53.424Z,2720
2018-03-14T07:50:03.655Z,2748
2018-03-14T07:51:13.790Z,2720
2018-03-14T07:52:23.914Z,2708
2018-03-14T07:53:33.435Z,2772
2018-03-14T07:54:43.561Z,2832
2018-03-14T07:55:53.695Z,2832
2018-03-14T07:57:03.801Z,2732
2018-03-14T07:58:14.039Z,2672
2018-03-14T07:59:24.263Z,2608
2018-03-14T08:00:34.407Z,2324
2018-03-14T08:01:44.550Z,2260
2018-03-14T08:02:54.506Z,2364
2018-03-14T08:04:04.447Z,2620
2018-03-14T08:05:14.049Z,2792
2018-03-14T08:06:24.247Z,2920
2018-03-14T08:07:34.359Z,2888
2018-03-14T08:08:44.076Z,2924
2018-03-14T08:09:53.960Z,2964
2018-03-14T08:11:04.110Z,3072
2018-03-14T08:12:14.299Z,3196
2018-03-14T08:13:24.597Z,3156
2018-03-14T08:14:35.024Z,3088
2018-03-14T08:15:45.144Z,2968
2018-03-14T08:16:55.263Z,2916
2018-03-14T08:18:05.378Z,3068
2018-03-14T08:19:15.577Z,2944
2018-03-14T08:20:25.898Z,3052
2018-03-14T08:21:36.057Z,3104
2018-03-14T08:22:46.355Z,3360
2018-03-14T08:23:56.482Z,3588
2018-03-14T08:25:06.691Z,3660
2018-03-14T08:26:16.874Z,3652
2018-03-14T08:27:27.143Z,3652
2018-03-14T08:28:37.365Z,3564
2018-03-14T08:29:47.614Z,3688
2018-03-14T08:30:57.802Z,3864
2018-03-14T08:32:08.066Z,3976
2018-03-14T08:33:18.283Z,3972
2018-03-14T08:34:27.994Z,3756
2018-03-14T08:35:38.176Z,3124
2018-03-14T08:36:48.334Z,3124
2018-03-14T08:37:58.474Z,3096
2018-03-14T08:39:08.592Z,3160
2018-03-14T08:40:18.807Z,2756
2018-03-14T08:41:28.991Z,2400
2018-03-14T08:42:39.141Z,3216
2018-03-14T08:43:49.270Z,3576
2018-03-14T08:44:59.408Z,3844
2018-03-14T08:46:09.591Z,3984
2018-03-14T08:47:19.451Z,3956
2018-03-14T08:48:29.594Z,4192
2018-03-14T08:49:39.750Z,4344
2018-03-14T08:50:49.920Z,4504
2018-03-14T08:52:00.030Z,4680
2018-03-14T08:53:10.168Z,4868
2018-03-14T08:54:20.437Z,4984
2018-03-14T08:55:30.671Z,5108
2018-03-14T08:56:40.538Z,5168
2018-03-14T08:57:50.660Z,5180
2018-03-14T08:59:00.786Z,5228
2018-03-14T09:00:11.006Z,5324
2018-03-14T09:01:21.129Z,5392
2018-03-14T09:02:31.337Z,5388
2018-03-14T09:03:41.565Z,5412
2018-03-14T09:04:51.529Z,5480
2018-03-14T09:06:01.656Z,5488
2018-03-14T09:07:11.813Z,5500
2018-03-14T09:08:22.028Z,5528
2018-03-14T09:09:32.301Z,5512
2018-03-14T09:10:42.446Z,5452
2018-03-14T09:11:52.651Z,5336
2018-03-14T09:13:02.863Z,5232
2018-03-14T09:14:13.248Z,5500
2018-03-14T09:15:23.113Z,5796
2018-03-14T09:16:33.094Z,5836
2018-03-14T09:17:43.326Z,5800
2018-03-14T09:18:53.497Z,5916
2018-03-14T09:20:03.259Z,6272
2018-03-14T09:21:13.114Z,6464
2018-03-14T09:22:23.255Z,6688
2018-03-14T09:23:33.387Z,6888
2018-03-14T09:24:43.548Z,7144
2018-03-14T09:25:53.734Z,7480
2018-03-14T09:27:03.890Z,7252
2018-03-14T09:28:14.036Z,7324
2018-03-14T09:29:24.168Z,6892
2018-03-14T09:30:34.029Z,7120
2018-03-14T09:31:43.575Z,7216
2018-03-14T09:32:53.586Z,7324
2018-03-14T09:34:03.451Z,6636
2018-03-14T09:35:13.523Z,6136
2018-03-14T09:36:23.716Z,5008
2018-03-14T09:37:33.595Z,5216
2018-03-14T09:38:43.486Z,5020
2018-03-14T09:39:53.638Z,5316
2018-03-14T09:41:03.267Z,5504
2018-03-14T09:42:13.234Z,6232
2018-03-14T09:43:23.369Z,6696
2018-03-14T09:44:33.525Z,6756
2018-03-14T09:45:43.680Z,6256
2018-03-14T09:46:53.875Z,5888
2018-03-14T09:48:03.739Z,6132
2018-03-14T09:49:13.648Z,6756
2018-03-14T09:50:23.772Z,6744
2018-03-14T09:51:34.004Z,6836
2018-03-14T09:52:43.868Z,7056
2018-03-14T09:53:54.039Z,7260
2018-03-14T09:55:04.160Z,7248
2018-03-14T09:56:14.050Z,6872
2018-03-14T09:57:24.225Z,6380
2018-03-14T09:58:34.362Z,6220
2018-03-14T09:59:44.221Z,6200
2018-03-14T10:00:54.421Z,6084
2018-03-14T10:02:04.571Z,6108
2018-03-14T10:03:14.693Z,6224
2018-03-14T10:04:24.855Z,6220
2018-03-14T10:05:35.073Z,6308
2018-03-14T10:06:45.307Z,6284
2018-03-14T10:07:55.529Z,6076
2018-03-14T10:09:05.568Z,6312
2018-03-14T10:10:15.499Z,6188
2018-03-14T10:11:25.118Z,5704
2018-03-14T10:12:34.927Z,5232
2018-03-14T10:13:45.071Z,4992
2018-03-14T10:14:55.311Z,4692
2018-03-14T10:16:05.641Z,4352
2018-03-14T10:17:15.301Z,4132
2018-03-14T10:18:25.532Z,3896
2018-03-14T10:19:35.810Z,3548
2018-03-14T10:20:45.688Z,3476
2018-03-14T10:21:55.945Z,3472
2018-03-14T10:23:05.883Z,3396
2018-03-14T10:24:16.134Z,3260
2018-03-14T10:25:26.285Z,3180
2018-03-14T10:26:36.708Z,3080
2018-03-14T10:27:45.715Z,2920
2018-03-14T10:28:55.239Z,2736
2018-03-14T10:30:05.352Z,2644
2018-03-14T10:31:15.122Z,2612
2018-03-14T10:32:24.643Z,2452
2018-03-14T10:33:34.566Z,2332
2018-03-14T10:34:44.726Z,2272
2018-03-14T10:35:54.629Z,2276
2018-03-14T10:37:04.237Z,2412
2018-03-14T10:38:14.173Z,2584
2018-03-14T10:39:24.300Z,2732
2018-03-14T10:40:34.431Z,2728
2018-03-14T10:41:44.279Z,2600
2018-03-14T10:42:53.967Z,2608
2018-03-14T10:44:05.134Z,2412
2018-03-14T10:45:14.740Z,2252
2018-03-14T10:46:25.012Z,2472
2018-03-14T10:47:35.219Z,2748
2018-03-14T10:48:44.855Z,2904
2018-03-14T10:49:54.360Z,2968
2018-03-14T10:51:03.984Z,3116
2018-03-14T10:52:14.151Z,3436
2018-03-14T10:53:24.056Z,3576
2018-03-14T10:54:33.761Z,3588
2018-03-14T10:55:43.921Z,3600
2018-03-14T10:56:54.168Z,3576
2018-03-14T10:58:04.026Z,3528
2018-03-14T10:59:14.156Z,3548
2018-03-14T11:00:24.309Z,3544
2018-03-14T11:01:34.518Z,3432
2018-03-14T11:02:44.785Z,3296
2018-03-14T11:03:54.619Z,3180
2018-03-14T11:05:04.523Z,3312
2018-03-14T11:06:14.409Z,3356
2018-03-14T11:07:24.277Z,3560
2018-03-14T11:08:34.187Z,4004
2018-03-14T11:09:44.319Z,4468
2018-03-14T11:10:54.528Z,4804
2018-03-14T11:12:04.495Z,4904
2018-03-14T11:13:14.617Z,4852
2018-03-14T11:14:24.532Z,5124
2018-03-14T11:15:34.494Z,5560
2018-03-14T11:16:44.697Z,5840
2018-03-14T11:17:54.853Z,5996
2018-03-14T11:19:05.074Z,6068
2018-03-14T11:20:15.009Z,6188
2018-03-14T11:21:25.163Z,6348
2018-03-14T11:22:34.712Z,6552
2018-03-14T11:23:44.867Z,6776
2018-03-14T11:24:55.007Z,6972
2018-03-14T11:26:04.852Z,7052
2018-03-14T11:27:15.041Z,7092
2018-03-14T11:28:24.932Z,7060
2018-03-14T11:29:34.776Z,7056
2018-03-14T11:30:44.926Z,7124
2018-03-14T11:31:55.099Z,7204
2018-03-14T11:33:05.276Z,7264
2018-03-14T11:34:15.466Z,7348
2018-03-14T11:35:25.617Z,7416
2018-03-14T11:36:35.601Z,7568
2018-03-14T11:37:45.736Z,7720
2018-03-14T11:38:55.848Z,7876
2018-03-14T11:40:05.729Z,7988
2018-03-14T11:41:15.918Z,8148
2018-03-14T11:42:25.952Z,8452
2018-03-14T11:43:36.178Z,8428
2018-03-14T11:44:46.457Z,8356
2018-03-14T11:45:56.639Z,8348
2018-03-14T11:47:06.919Z,8284
2018-03-14T11:48:17.076Z,8104
2018-03-14T11:49:27.267Z,7948
2018-03-14T11:50:37.457Z,8092
2018-03-14T11:51:47.755Z,8088
2018-03-14T11:52:57.948Z,7920
2018-03-14T11:54:08.186Z,7540
2018-03-14T11:55:18.395Z,7352
2018-03-14T11:56:28.373Z,7424
2018-03-14T11:57:38.503Z,7368
2018-03-14T11:58:48.261Z,7236
2018-03-14T11:59:58.143Z,6928
2018-03-14T12:01:08.290Z,6880
2018-03-14T12:02:18.459Z,6636
2018-03-14T12:03:28.322Z,6520
2018-03-14T12:04:38.452Z,6548
2018-03-14T12:05:48.332Z,6268
2018-03-14T12:06:58.224Z,5620
2018-03-14T12:08:08.128Z,5488
2018-03-14T12:09:18.268Z,5312
2018-03-14T12:10:28.480Z,4928
2018-03-14T12:11:38.756Z,4644
2018-03-14T12:12:48.888Z,4552
2018-03-14T12:13:59.050Z,4576
2018-03-14T12:15:09.258Z,4588
2018-03-14T12:16:19.273Z,4532
2018-03-14T12:17:28.887Z,4436
2018-03-14T12:18:38.874Z,4340
2018-03-14T12:19:48.868Z,4104
2018-03-14T12:20:58.838Z,3976
2018-03-14T12:22:09.066Z,4108
2018-03-14T12:23:19.259Z,4080
2018-03-14T12:24:29.136Z,3824
2018-03-14T12:25:39.030Z,3672
2018-03-14T12:26:49.186Z,3600
2018-03-14T12:27:59.350Z,3356
2018-03-14T12:29:09.211Z,3264
2018-03-14T12:30:19.344Z,3244
2018-03-14T12:31:29.162Z,3196
2018-03-14T12:32:38.511Z,3452
2018-03-14T12:33:48.147Z,3724
2018-03-14T12:34:57.747Z,3980
2018-03-14T12:36:07.278Z,4188
2018-03-14T12:37:17.397Z,4452
2018-03-14T12:38:27.589Z,4576
2018-03-14T12:39:37.108Z,4664
2018-03-14T12:40:47.255Z,5024
2018-03-14T12:41:57.141Z,5540
2018-03-14T12:43:07.377Z,5920
2018-03-14T12:44:17.516Z,6048
2018-03-14T12:45:27.284Z,6128
2018-03-14T12:46:37.510Z,6096
2018-03-14T12:47:47.676Z,6236
2018-03-14T12:48:57.936Z,6412
2018-03-14T12:50:08.091Z,6248
2018-03-14T12:51:18.222Z,5932
2018-03-14T12:52:28.092Z,5648
2018-03-14T12:53:38.236Z,5428
2018-03-14T12:54:48.151Z,5256
2018-03-14T12:55:58.269Z,5012
2018-03-14T12:57:07.631Z,4860
2018-03-14T12:58:17.824Z,4844
2018-03-14T12:59:27.594Z,4724
2018-03-14T13:00:37.205Z,4500
2018-03-14T13:01:46.932Z,4268
2018-03-14T13:02:57.172Z,4120
2018-03-14T13:04:07.434Z,4152
2018-03-14T13:05:17.190Z,4264
2018-03-14T13:06:27.345Z,4332
2018-03-14T13:07:37.254Z,4384
2018-03-14T13:08:47.384Z,4432
2018-03-14T13:09:56.881Z,4360
2018-03-14T13:11:06.381Z,4196
2018-03-14T13:12:16.535Z,4108
2018-03-14T13:13:26.771Z,4076
2018-03-14T13:14:36.392Z,4144
2018-03-14T13:15:46.605Z,4204
2018-03-14T13:16:56.815Z,4320
2018-03-14T13:18:06.762Z,4376
2018-03-14T13:19:16.964Z,4316
2018-03-14T13:20:27.146Z,4200
2018-03-14T13:21:37.018Z,4080
2018-03-14T13:22:46.875Z,3972
2018-03-14T13:23:56.751Z,3852
2018-03-14T13:25:07.108Z,3736
2018-03-14T13:26:17.281Z,3632
2018-03-14T13:27:26.901Z,3524
2018-03-14T13:28:37.019Z,3540
2018-03-14T13:29:47.155Z,3660
2018-03-14T13:30:57.117Z,3808
2018-03-14T13:32:07.353Z,3904
2018-03-14T13:33:17.604Z,3936
2018-03-14T13:34:27.765Z,3904
2018-03-14T13:35:37.550Z,3844
2018-03-14T13:36:47.442Z,3764
2018-03-14T13:37:57.571Z,3676
2018-03-14T13:39:07.514Z,3720
2018-03-14T13:40:17.405Z,3792
2018-03-14T13:41:27.554Z,3876
2018-03-14T13:42:37.537Z,3928
2018-03-14T13:43:47.766Z,3940
2018-03-14T13:44:57.692Z,3940
2018-03-14T13:46:07.601Z,3996
2018-03-14T13:47:17.496Z,4016
2018-03-14T13:48:27.458Z,3976
2018-03-14T13:49:38.581Z,3880
2018-03-14T13:50:48.694Z,3820
2018-03-14T13:51:58.372Z,3732
2018-03-14T13:53:08.539Z,3640
2018-03-14T13:54:18.405Z,3540
2018-03-14T13:55:28.540Z,3452
2018-03-14T13:56:38.522Z,3372
2018-03-14T13:57:48.666Z,3304
2018-03-14T13:58:58.838Z,3240
2018-03-14T14:00:08.871Z,3128
2018-03-14T14:01:18.695Z,2996
2018-03-14T14:02:28.318Z,2856
2018-03-14T14:03:38.185Z,2796
2018-03-14T14:04:48.299Z,2788
2018-03-14T14:05:58.088Z,2756
2018-03-14T14:07:08.221Z,2712
2018-03-14T14:08:18.811Z,2776
2018-03-14T14:09:28.735Z,2824
2018-03-14T14:10:38.361Z,2808
2018-03-14T14:11:48.265Z,2760
2018-03-14T14:12:58.292Z,2696
2018-03-14T14:14:08.154Z,2640
2018-03-14T14:15:18.052Z,2596
2018-03-14T14:16:27.715Z,2560
2018-03-14T14:17:37.601Z,2524
2018-03-14T14:18:47.725Z,2496
2018-03-14T14:19:57.647Z,2484
2018-03-14T14:21:07.855Z,2472
2018-03-14T14:22:18.017Z,2472
2018-03-14T14:23:28.179Z,2484
2018-03-14T14:24:38.080Z,2524
2018-03-14T14:25:48.233Z,2580
2018-03-14T14:26:58.123Z,2608
2018-03-14T14:28:08.003Z,2656
2018-03-14T14:29:18.167Z,2704
2018-03-14T14:30:28.170Z,2724
2018-03-14T14:31:37.992Z,2712
2018-03-14T14:32:48.181Z,2696
2018-03-14T14:33:58.395Z,2648
2018-03-14T14:35:08.582Z,2568
2018-03-14T14:36:18.455Z,2492
2018-03-14T14:37:28.588Z,2428
2018-03-14T14:38:38.513Z,2372
2018-03-14T14:39:48.634Z,2340
2018-03-14T14:40:58.799Z,2332
2018-03-14T14:42:08.668Z,2324
2018-03-14T14:43:18.833Z,2312
2018-03-14T14:44:28.825Z,2308
2018-03-14T14:45:38.517Z,2300
2018-03-14T14:46:48.394Z,2296
2018-03-14T14:47:58.635Z,2292
2018-03-14T14:49:08.818Z,2304
2018-03-14T14:50:18.963Z,2320
2018-03-14T14:51:28.904Z,2336
2018-03-14T14:52:39.026Z,2344
2018-03-14T14:53:49.269Z,2360
2018-03-14T14:54:58.836Z,2380
2018-03-14T14:56:09.048Z,2412
2018-03-14T14:57:19.215Z,2436
2018-03-14T14:58:29.080Z,2436
2018-03-14T14:59:39.370Z,2416
2018-03-14T15:00:49.006Z,2384
2018-03-14T15:01:58.911Z,2328
2018-03-14T15:03:08.483Z,2280
2018-03-14T15:04:18.861Z,2248
2018-03-14T15:05:28.743Z,2228
2018-03-14T15:06:38.886Z,2200
2018-03-14T15:07:49.014Z,2160
2018-03-14T15:08:58.910Z,2120
2018-03-14T15:10:09.071Z,2100
2018-03-14T15:11:19.041Z,2080
2018-03-14T15:12:29.174Z,2052
2018-03-14T15:13:39.372Z,2008
2018-03-14T15:14:49.508Z,1952
2018-03-14T15:15:59.637Z,1892
2018-03-14T15:17:09.815Z,1820
2018-03-14T15:18:19.956Z,1756
2018-03-14T15:19:30.162Z,1704
2018-03-14T15:20:40.469Z,1664
2018-03-14T15:21:50.646Z,1644
2018-03-14T15:23:00.965Z,1632
2018-03-14T15:24:10.871Z,1612
2018-03-14T15:25:21.013Z,1588
2018-03-14T15:26:30.897Z,1560
2018-03-14T15:27:41.059Z,1516
2018-03-14T15:28:51.484Z,1476
2018-03-14T15:30:01.682Z,1456
2018-03-14T15:31:11.551Z,1440
2018-03-14T15:32:21.182Z,1408
2018-03-14T15:33:31.308Z,1384
2018-03-14T15:34:41.473Z,1356
2018-03-14T15:35:51.482Z,1344
2018-03-14T15:37:02.613Z,1328
2018-03-14T15:38:12.791Z,1308
2018-03-14T15:39:22.766Z,1300
2018-03-14T15:40:32.920Z,1296
2018-03-14T15:41:43.061Z,1288
2018-03-14T15:42:52.938Z,1268
2018-03-14T15:44:03.133Z,1232
2018-03-14T15:45:12.904Z,1208
2018-03-14T15:46:22.796Z,1184
2018-03-14T15:47:32.769Z,1172
2018-03-14T15:48:42.911Z,1160
2018-03-14T15:49:52.901Z,1140
2018-03-14T15:51:03.050Z,1120
2018-03-14T15:52:12.969Z,1116
2018-03-14T15:53:23.153Z,1100
2018-03-14T15:54:33.308Z,1080
2018-03-14T15:55:43.489Z,1072
2018-03-14T15:56:53.403Z,1052
2018-03-14T15:58:04.301Z,1024
2018-03-14T15:59:14.208Z,996
2018-03-14T16:00:24.425Z,968
2018-03-14T16:01:34.377Z,960
2018-03-14T16:02:44.092Z,952
2018-03-14T16:03:54.024Z,940
2018-03-14T16:05:03.832Z,940
2018-03-14T16:06:14.020Z,940
2018-03-14T16:07:24.038Z,944